createdAt,value
2022-08-26T00:02:02.219Z,3.75
2022-08-26T00:04:32.121Z,4.00
2022-08-26T00:06:59.453Z,3.55
2022-08-26T00:09:26.820Z,4.25
2022-08-26T00:11:54.554Z,3.80
2022-08-26T00:14:27.076Z,4.15
2022-08-26T00:16:57.265Z,3.78
2022-08-26T00:19:25.188Z,3.75
2022-08-26T00:21:53.577Z,3.55
2022-08-26T00:24:21.852Z,4.30
2022-08-26T00:26:50.130Z,4.82
2022-08-26T00:29:19.773Z,4.05
2022-08-26T00:31:49.403Z,3.90
2022-08-26T00:34:19.418Z,4.13
2022-08-26T00:36:49.222Z,3.45
2022-08-26T00:39:16.652Z,3.90
2022-08-26T00:41:44.036Z,3.88
2022-08-26T00:44:12.200Z,3.40
2022-08-26T00:46:46.413Z,3.78
2022-08-26T00:49:27.071Z,3.60
2022-08-26T00:51:59.067Z,3.47
2022-08-26T00:54:28.140Z,3.58
2022-08-26T00:56:59.928Z,3.47
2022-08-26T00:59:32.663Z,3.45
2022-08-26T01:02:02.760Z,3.80
2022-08-26T01:04:32.031Z,3.47
2022-08-26T01:07:00.217Z,3.60
2022-08-26T01:09:29.934Z,3.72
2022-08-26T01:11:59.879Z,3.75
2022-08-26T01:14:31.870Z,3.58
2022-08-26T01:17:02.075Z,3.78
2022-08-26T01:19:38.399Z,3.97
2022-08-26T01:22:58.901Z,4.45
2022-08-26T01:25:31.543Z,4.63
2022-08-26T01:28:00.797Z,4.65
2022-08-26T01:30:29.614Z,4.75
2022-08-26T01:32:59.954Z,4.10
2022-08-26T01:35:28.061Z,4.15
2022-08-26T01:37:57.475Z,4.82
2022-08-26T01:40:28.426Z,4.03
2022-08-26T01:42:56.170Z,3.70
2022-08-26T01:45:26.944Z,3.75
2022-08-26T01:47:56.984Z,3.90
2022-08-26T01:50:30.245Z,3.90
2022-08-26T01:53:00.556Z,4.07
2022-08-26T01:55:32.870Z,3.17
2022-08-26T01:58:04.819Z,3.60
2022-08-26T02:00:34.378Z,3.03
2022-08-26T02:03:18.354Z,3.15
2022-08-26T02:05:51.246Z,3.50
2022-08-26T02:08:24.780Z,3.40
2022-08-26T02:10:54.975Z,3.00
2022-08-26T02:13:23.654Z,3.00
2022-08-26T02:15:53.367Z,3.17
2022-08-26T02:18:21.125Z,2.97
2022-08-26T02:20:53.304Z,2.88
2022-08-26T02:23:21.250Z,3.47
2022-08-26T02:26:12.140Z,3.40
2022-08-26T02:29:02.621Z,3.42
2022-08-26T02:31:30.082Z,3.80
2022-08-26T02:34:18.999Z,3.70
2022-08-26T02:36:47.285Z,3.25
2022-08-26T02:39:19.501Z,3.30
2022-08-26T02:41:49.917Z,3.50
2022-08-26T02:44:17.617Z,3.42
2022-08-26T02:46:46.933Z,3.17
2022-08-26T02:49:16.978Z,3.65
2022-08-26T02:51:44.795Z,3.80
2022-08-26T02:54:12.960Z,3.72
2022-08-26T02:56:41.103Z,3.60
2022-08-26T02:59:09.186Z,3.42
2022-08-26T03:01:37.151Z,4.13
2022-08-26T03:04:07.054Z,4.05
2022-08-26T03:06:36.205Z,4.07
2022-08-26T03:09:05.350Z,4.38
2022-08-26T03:11:33.454Z,3.70
2022-08-26T03:14:03.381Z,4.13
2022-08-26T03:16:33.700Z,3.75
2022-08-26T03:19:02.958Z,3.92
2022-08-26T03:21:31.107Z,3.95
2022-08-26T03:23:59.328Z,3.88
2022-08-26T03:26:28.895Z,4.20
2022-08-26T03:29:16.131Z,4.35
2022-08-26T03:31:44.145Z,3.83
2022-08-26T03:34:15.314Z,4.80
2022-08-26T03:36:43.711Z,4.10
2022-08-26T03:39:12.680Z,4.85
2022-08-26T03:41:41.216Z,4.60
2022-08-26T03:44:11.407Z,4.72
2022-08-26T03:46:39.413Z,4.32
2022-08-26T03:49:07.430Z,4.63
2022-08-26T03:51:35.647Z,3.95
2022-08-26T03:54:08.324Z,4.68
2022-08-26T03:56:38.644Z,4.97
2022-08-26T03:59:07.822Z,4.32
2022-08-26T04:01:36.092Z,4.30
2022-08-26T04:04:04.183Z,4.85
2022-08-26T04:06:39.428Z,5.20
2022-08-26T04:09:10.116Z,5.43
2022-08-26T04:11:39.688Z,4.85
2022-08-26T04:14:10.391Z,4.60
2022-08-26T04:16:37.914Z,4.65
2022-08-26T04:19:06.745Z,5.75
2022-08-26T04:21:35.086Z,4.20
2022-08-26T04:24:03.510Z,4.00
2022-08-26T04:26:42.566Z,4.03
2022-08-26T04:29:17.729Z,3.90
2022-08-26T04:31:47.031Z,4.10
2022-08-26T04:34:16.201Z,3.92
2022-08-26T04:36:44.568Z,3.70
2022-08-26T04:39:14.976Z,3.90
2022-08-26T04:41:48.596Z,3.63
2022-08-26T04:44:17.394Z,3.78
2022-08-26T04:46:45.450Z,3.90
2022-08-26T04:49:14.247Z,3.42
2022-08-26T04:51:41.714Z,3.67
2022-08-26T04:54:11.990Z,3.28
2022-08-26T04:56:42.043Z,3.25
2022-08-26T04:59:16.923Z,3.60
2022-08-26T05:01:52.144Z,3.33
2022-08-26T05:04:21.014Z,3.33
2022-08-26T05:06:49.918Z,3.25
2022-08-26T05:09:21.040Z,3.78
2022-08-26T05:11:52.192Z,3.53
2022-08-26T05:14:22.383Z,3.42
2022-08-26T05:16:50.555Z,3.00
2022-08-26T05:19:19.491Z,3.00
2022-08-26T05:21:48.686Z,2.85
2022-08-26T05:24:17.810Z,2.95
2022-08-26T05:26:47.303Z,3.20
2022-08-26T05:29:16.787Z,3.03
2022-08-26T05:31:44.868Z,3.40
2022-08-26T05:34:12.823Z,3.35
2022-08-26T05:36:40.586Z,3.20
2022-08-26T05:39:10.539Z,3.17
2022-08-26T05:41:41.129Z,3.30
2022-08-26T05:44:14.010Z,3.15
2022-08-26T05:46:44.115Z,3.63
2022-08-26T05:49:14.086Z,3.65
2022-08-26T05:51:45.272Z,3.05
2022-08-26T05:54:13.973Z,3.28
2022-08-26T05:56:43.423Z,3.30
2022-08-26T05:59:15.286Z,3.20
2022-08-26T06:01:43.680Z,2.80
2022-08-26T06:04:12.509Z,3.20
2022-08-26T06:06:42.691Z,2.83
2022-08-26T06:09:11.443Z,2.80
2022-08-26T06:11:40.297Z,2.70
2022-08-26T06:14:08.591Z,2.60
2022-08-26T06:16:41.196Z,2.88
2022-08-26T06:19:11.991Z,2.63
2022-08-26T06:21:41.694Z,2.88
2022-08-26T06:24:30.196Z,3.05
2022-08-26T06:27:05.040Z,2.85
2022-08-26T06:29:36.602Z,2.97
2022-08-26T06:32:05.855Z,3.20
2022-08-26T06:34:34.332Z,2.67
2022-08-26T06:37:03.364Z,2.67
2022-08-26T06:39:32.931Z,2.40
2022-08-26T06:42:02.656Z,2.83
2022-08-26T06:44:30.793Z,2.78
2022-08-26T06:46:59.959Z,3.17
2022-08-26T06:49:27.978Z,2.78
2022-08-26T06:52:02.185Z,2.58
2022-08-26T06:54:31.898Z,2.90
2022-08-26T06:57:00.433Z,3.75
2022-08-26T06:59:28.568Z,3.05
2022-08-26T07:02:01.564Z,2.63
2022-08-26T07:04:30.686Z,3.55
2022-08-26T07:07:00.403Z,2.97
2022-08-26T07:09:30.457Z,2.58
2022-08-26T07:11:58.261Z,2.97
2022-08-26T07:14:27.678Z,3.05
2022-08-26T07:16:56.110Z,2.92
2022-08-26T07:19:30.624Z,3.75
2022-08-26T07:22:03.283Z,2.55
2022-08-26T07:24:36.923Z,2.30
2022-08-26T07:27:07.187Z,2.70
2022-08-26T07:29:37.045Z,2.25
2022-08-26T07:32:05.380Z,2.13
2022-08-26T07:34:33.447Z,2.20
2022-08-26T07:37:01.100Z,2.70
2022-08-26T07:39:31.290Z,2.13
2022-08-26T07:42:01.586Z,2.08
2022-08-26T07:44:38.561Z,2.70
2022-08-26T07:47:19.365Z,3.20
2022-08-26T07:49:56.112Z,5.65
2022-08-26T07:52:27.041Z,3.53
2022-08-26T07:54:58.697Z,2.28
2022-08-26T07:57:30.643Z,2.90
2022-08-26T07:59:58.541Z,2.40
2022-08-26T08:02:29.607Z,3.92
2022-08-26T08:04:58.156Z,2.60
2022-08-26T08:07:44.232Z,2.05
2022-08-26T08:10:19.208Z,1.98
2022-08-26T08:12:50.337Z,2.22
2022-08-26T08:15:20.673Z,2.78
2022-08-26T08:17:51.566Z,2.45
2022-08-26T08:20:19.685Z,2.50
2022-08-26T08:22:47.727Z,2.53
2022-08-26T08:25:15.279Z,2.63
2022-08-26T08:27:48.248Z,2.83
2022-08-26T08:30:20.796Z,2.92
2022-08-26T08:32:51.108Z,2.88
2022-08-26T08:35:22.439Z,2.42
2022-08-26T08:37:54.966Z,2.50
2022-08-26T08:40:26.126Z,2.80
2022-08-26T08:43:05.248Z,3.78
2022-08-26T08:45:36.590Z,2.60
2022-08-26T08:48:09.680Z,2.85
2022-08-26T08:50:46.681Z,2.40
2022-08-26T08:53:44.864Z,2.78
2022-08-26T08:56:25.076Z,2.30
2022-08-26T08:58:59.594Z,2.63
2022-08-26T09:01:42.395Z,3.25
2022-08-26T09:04:17.210Z,2.28
2022-08-26T09:06:49.020Z,2.50
2022-08-26T09:09:23.437Z,2.90
2022-08-26T09:11:51.136Z,2.17
2022-08-26T09:14:18.835Z,2.90
2022-08-26T09:17:05.206Z,2.30
2022-08-26T09:19:43.552Z,2.67
2022-08-26T09:22:36.701Z,2.85
2022-08-26T09:25:15.700Z,3.10
2022-08-26T09:27:50.473Z,3.08
2022-08-26T09:30:35.432Z,2.53
2022-08-26T09:33:10.863Z,2.45
2022-08-26T09:35:41.960Z,2.83
2022-08-26T09:38:33.785Z,3.20
2022-08-26T09:41:07.282Z,3.33
2022-08-26T09:43:36.383Z,2.97
2022-08-26T09:46:33.292Z,4.07
2022-08-26T09:49:42.685Z,2.80
2022-08-26T09:52:23.771Z,2.60
2022-08-26T09:55:12.483Z,2.92
2022-08-26T10:00:57.559Z,4.25
2022-08-26T10:03:35.455Z,4.43
2022-08-26T10:06:08.338Z,3.40
2022-08-26T10:08:44.083Z,4.40
2022-08-26T10:11:20.112Z,2.90
2022-08-26T10:13:59.931Z,3.33
2022-08-26T10:16:35.611Z,2.83
2022-08-26T10:19:13.207Z,4.10
2022-08-26T10:22:00.842Z,2.80
2022-08-26T10:24:44.816Z,2.58
2022-08-26T10:27:26.763Z,2.83
2022-08-26T10:30:00.720Z,3.15
2022-08-26T10:35:27.182Z,2.70
2022-08-26T10:38:27.329Z,3.22
2022-08-26T10:41:16.788Z,4.10
2022-08-26T10:44:00.176Z,2.97
2022-08-26T10:46:39.816Z,3.65
2022-08-26T10:49:15.190Z,2.45
2022-08-26T10:51:54.681Z,2.60
2022-08-26T10:54:42.228Z,2.67
2022-08-26T10:57:21.429Z,3.03
2022-08-26T11:00:29.574Z,3.75
2022-08-26T11:03:31.767Z,2.60
2022-08-26T11:06:20.018Z,2.88
2022-08-26T11:08:47.724Z,2.58
2022-08-26T11:11:39.709Z,2.72
2022-08-26T11:14:28.541Z,2.70
2022-08-26T11:16:58.977Z,8.32
2022-08-26T11:19:57.090Z,5.13
2022-08-26T11:22:34.965Z,5.90
2022-08-26T11:25:05.227Z,4.13
2022-08-26T11:27:37.718Z,5.40
2022-08-26T11:30:18.658Z,4.93
2022-08-26T11:32:55.675Z,4.00
2022-08-26T11:35:24.303Z,3.85
2022-08-26T11:38:19.844Z,3.00
2022-08-26T11:41:03.959Z,3.22
2022-08-26T11:43:34.029Z,4.28
2022-08-26T11:46:09.073Z,3.25
2022-08-26T11:48:39.554Z,3.08
2022-08-26T11:51:08.747Z,3.33
2022-08-26T11:53:41.318Z,2.92
2022-08-26T11:56:13.506Z,3.17
2022-08-26T11:58:45.190Z,3.05
2022-08-26T12:01:31.450Z,2.63
2022-08-26T12:04:00.110Z,2.72
2022-08-26T12:06:31.476Z,3.17
2022-08-26T12:09:08.100Z,3.38
2022-08-26T12:11:37.457Z,2.60
2022-08-26T12:14:21.346Z,2.95
2022-08-26T12:16:48.884Z,3.25
2022-08-26T12:19:32.651Z,2.83
2022-08-26T12:22:25.660Z,2.60
2022-08-26T12:24:58.864Z,2.88
2022-08-26T12:27:35.976Z,3.65
2022-08-26T12:30:20.147Z,3.05
2022-08-26T12:32:57.336Z,2.97
2022-08-26T12:35:29.427Z,2.80
2022-08-26T12:37:57.705Z,2.83
2022-08-26T12:40:30.853Z,3.08
2022-08-26T12:43:00.896Z,3.38
2022-08-26T12:45:34.811Z,3.30
2022-08-26T12:48:31.689Z,2.80
2022-08-26T12:51:00.302Z,2.92
2022-08-26T12:53:32.738Z,2.97
2022-08-26T12:56:04.654Z,2.95
2022-08-26T12:58:35.887Z,3.40
2022-08-26T13:01:09.369Z,3.00
2022-08-26T13:03:44.618Z,3.35
2022-08-26T13:06:23.598Z,2.95
2022-08-26T13:08:55.325Z,2.97
2022-08-26T13:11:26.164Z,3.20
2022-08-26T13:13:59.035Z,3.40
2022-08-26T13:16:27.307Z,3.45
2022-08-26T13:18:59.667Z,3.55
2022-08-26T13:21:37.301Z,3.45
2022-08-26T13:24:13.057Z,3.38
2022-08-26T13:26:43.581Z,3.35
2022-08-26T13:29:12.588Z,3.17
2022-08-26T13:31:44.161Z,4.05
2022-08-26T13:34:19.350Z,3.50
2022-08-26T13:36:48.914Z,3.15
2022-08-26T13:39:17.561Z,3.60
2022-08-26T13:41:45.164Z,2.92
2022-08-26T13:44:20.243Z,3.28
2022-08-26T13:46:47.928Z,3.85
2022-08-26T13:49:15.936Z,3.47
2022-08-26T13:51:43.652Z,3.55
2022-08-26T13:54:11.346Z,3.55
2022-08-26T13:56:41.599Z,2.90
2022-08-26T13:59:09.026Z,3.20
2022-08-26T14:01:37.326Z,3.40
2022-08-26T14:04:04.749Z,4.00
2022-08-26T14:06:34.644Z,3.42
2022-08-26T14:09:02.263Z,2.90
2022-08-26T14:11:41.151Z,3.10
2022-08-26T14:14:19.841Z,2.97
2022-08-26T14:16:51.282Z,3.00
2022-08-26T14:19:29.685Z,3.13
2022-08-26T14:21:57.242Z,3.00
2022-08-26T14:24:26.283Z,2.90
2022-08-26T14:26:53.955Z,3.15
2022-08-26T14:29:22.440Z,3.08
2022-08-26T14:31:50.095Z,2.88
2022-08-26T14:34:17.775Z,3.30
2022-08-26T14:36:46.666Z,2.97
2022-08-26T14:39:14.947Z,2.83
2022-08-26T14:41:54.426Z,3.22
2022-08-26T14:44:26.557Z,3.20
2022-08-26T14:46:54.735Z,3.35
2022-08-26T14:49:23.887Z,3.38
2022-08-26T14:51:51.294Z,3.25
2022-08-26T14:54:19.475Z,3.70
2022-08-26T14:56:53.974Z,3.90
2022-08-26T14:59:25.568Z,3.60
2022-08-26T15:01:54.528Z,3.35
2022-08-26T15:04:23.193Z,3.70
2022-08-26T15:06:53.866Z,4.47
2022-08-26T15:09:22.534Z,3.97
2022-08-26T15:11:51.539Z,3.70
2022-08-26T15:14:20.138Z,3.90
2022-08-26T15:16:50.657Z,3.55
2022-08-26T15:19:19.141Z,3.83
2022-08-26T15:21:47.612Z,4.15
2022-08-26T15:24:18.887Z,4.00
2022-08-26T15:26:49.557Z,4.25
2022-08-26T15:29:17.553Z,4.10
2022-08-26T15:31:45.142Z,3.53
2022-08-26T15:34:16.751Z,3.80
2022-08-26T15:36:46.456Z,3.65
2022-08-26T15:39:16.053Z,4.22
2022-08-26T15:41:44.857Z,3.50
2022-08-26T15:44:14.085Z,3.38
2022-08-26T15:46:45.680Z,4.22
2022-08-26T15:49:18.231Z,4.00
2022-08-26T15:51:48.214Z,3.83
2022-08-26T15:54:19.612Z,4.22
2022-08-26T15:56:50.630Z,4.05
2022-08-26T15:59:19.468Z,4.05
2022-08-26T16:01:47.123Z,4.25
2022-08-26T16:04:15.167Z,3.83
2022-08-26T16:06:46.694Z,4.65
2022-08-26T16:09:14.105Z,4.30
2022-08-26T16:11:41.810Z,4.10
2022-08-26T16:14:09.555Z,4.20
2022-08-26T16:16:44.381Z,4.45
2022-08-26T16:19:14.309Z,5.10
2022-08-26T16:21:42.139Z,4.80
2022-08-26T16:24:09.971Z,4.70
2022-08-26T16:26:38.923Z,4.72
2022-08-26T16:29:12.426Z,5.28
2022-08-26T16:31:40.531Z,5.10
2022-08-26T16:34:09.068Z,4.88
2022-08-26T16:36:38.660Z,4.60
2022-08-26T16:39:07.945Z,4.40
2022-08-26T16:41:36.157Z,4.03
2022-08-26T16:44:07.919Z,4.40
2022-08-26T16:46:36.257Z,3.90
2022-08-26T16:49:04.813Z,4.00
2022-08-26T16:51:37.979Z,3.67
2022-08-26T16:54:09.562Z,3.53
2022-08-26T16:56:37.754Z,3.67
2022-08-26T16:59:07.218Z,3.80
2022-08-26T17:01:35.562Z,4.05
2022-08-26T17:04:03.362Z,4.30
2022-08-26T17:06:31.721Z,4.00
2022-08-26T17:08:59.337Z,3.70
2022-08-26T17:11:26.842Z,3.70
2022-08-26T17:13:54.387Z,4.20
2022-08-26T17:16:26.431Z,3.95
2022-08-26T17:18:58.684Z,3.55
2022-08-26T17:21:28.074Z,4.13
2022-08-26T17:23:57.891Z,5.40
2022-08-26T17:26:26.688Z,4.18
2022-08-26T17:28:54.529Z,3.72
2022-08-26T17:31:23.545Z,5.57
2022-08-26T17:33:53.756Z,4.47
2022-08-26T17:36:27.885Z,4.18
2022-08-26T17:38:57.040Z,3.80
2022-08-26T17:41:25.187Z,4.20
2022-08-26T17:43:52.592Z,4.07
2022-08-26T17:46:23.189Z,4.15
2022-08-26T17:48:50.933Z,5.10
2022-08-26T17:51:20.361Z,4.90
2022-08-26T17:53:50.714Z,4.60
2022-08-26T17:56:24.063Z,4.20
2022-08-26T17:58:54.277Z,4.85
2022-08-26T18:01:26.426Z,4.55
2022-08-26T18:03:59.685Z,4.68
2022-08-26T18:06:30.743Z,4.22
2022-08-26T18:08:58.739Z,4.50
2022-08-26T18:11:27.198Z,4.25
2022-08-26T18:13:54.883Z,4.57
2022-08-26T18:16:22.352Z,4.30
2022-08-26T18:18:53.507Z,4.03
2022-08-26T18:21:24.066Z,4.20
2022-08-26T18:23:52.360Z,4.45
2022-08-26T18:26:27.589Z,4.00
2022-08-26T18:28:55.741Z,3.92
2022-08-26T18:31:23.210Z,7.85
2022-08-26T18:33:50.700Z,4.47
2022-08-26T18:36:21.814Z,3.72
2022-08-26T18:38:50.847Z,3.97
2022-08-26T18:41:21.049Z,4.45
2022-08-26T18:43:50.614Z,3.58
2022-08-26T18:46:19.223Z,4.68
2022-08-26T18:48:51.065Z,6.05
2022-08-26T18:51:21.502Z,4.78
2022-08-26T18:53:49.934Z,5.85
2022-08-26T18:56:18.751Z,4.95
2022-08-26T18:58:50.110Z,7.85
2022-08-26T19:01:18.411Z,4.53
2022-08-26T19:03:49.234Z,4.18
2022-08-26T19:06:19.470Z,3.58
2022-08-26T19:08:49.972Z,3.20
2022-08-26T19:11:32.122Z,3.28
2022-08-26T19:14:02.313Z,3.58
2022-08-26T19:16:30.886Z,3.08
2022-08-26T19:19:00.656Z,2.95
2022-08-26T19:21:31.858Z,3.28
2022-08-26T19:24:02.635Z,3.53
2022-08-26T19:26:36.402Z,3.90
2022-08-26T19:29:04.137Z,3.67
2022-08-26T19:31:31.718Z,3.60
2022-08-26T19:33:59.645Z,3.65
2022-08-26T19:36:28.477Z,4.15
2022-08-26T19:38:56.849Z,4.25
2022-08-26T19:41:36.945Z,3.60
2022-08-26T19:44:11.770Z,4.35
2022-08-26T19:46:40.041Z,3.83
2022-08-26T19:49:10.581Z,3.88
2022-08-26T19:51:40.695Z,4.30
2022-08-26T19:54:09.734Z,5.05
2022-08-26T19:56:41.425Z,4.65
2022-08-26T19:59:09.060Z,9.57
2022-08-26T20:01:37.082Z,5.68
2022-08-26T20:04:04.965Z,4.80
2022-08-26T20:06:33.006Z,4.00
2022-08-26T20:09:03.739Z,4.05
2022-08-26T20:11:32.159Z,4.55
2022-08-26T20:13:59.883Z,4.13
2022-08-26T20:16:27.685Z,5.10
2022-08-26T20:19:14.041Z,5.10
2022-08-26T20:21:42.585Z,4.50
2022-08-26T20:24:14.021Z,5.97
2022-08-26T20:26:43.328Z,4.70
2022-08-26T20:29:12.976Z,4.35
2022-08-26T20:31:41.107Z,6.00
2022-08-26T20:34:08.744Z,4.20
2022-08-26T20:36:38.620Z,3.78
2022-08-26T20:39:06.454Z,5.07
2022-08-26T20:41:33.971Z,5.00
2022-08-26T20:44:02.176Z,4.18
2022-08-26T20:46:29.803Z,4.90
2022-08-26T20:48:58.230Z,5.03
2022-08-26T20:51:27.303Z,5.65
2022-08-26T20:53:54.924Z,5.55
2022-08-26T20:56:25.944Z,4.53
2022-08-26T20:58:55.934Z,4.95
2022-08-26T21:01:25.890Z,5.80
2022-08-26T21:03:54.266Z,5.18
2022-08-26T21:06:22.045Z,5.53
2022-08-26T21:08:50.826Z,5.20
2022-08-26T21:11:19.215Z,4.80
2022-08-26T21:16:36.769Z,4.53
2022-08-26T21:19:05.899Z,4.70
2022-08-26T21:21:33.843Z,4.28
2022-08-26T21:24:01.515Z,4.18
2022-08-26T21:26:29.374Z,4.90
2022-08-26T21:28:57.150Z,4.70
2022-08-26T21:31:25.532Z,4.25
2022-08-26T21:33:53.466Z,4.20
2022-08-26T21:36:21.194Z,4.65
2022-08-26T21:38:48.692Z,4.53
2022-08-26T21:41:19.520Z,4.30
2022-08-26T21:43:48.272Z,4.57
2022-08-26T21:46:22.038Z,4.40
2022-08-26T21:48:56.379Z,4.68
2022-08-26T21:51:26.135Z,3.88
2022-08-26T21:53:55.707Z,5.60
2022-08-26T21:56:26.343Z,4.30
2022-08-26T21:58:55.108Z,4.80
2022-08-26T22:01:23.715Z,4.53
2022-08-26T22:03:52.750Z,4.47
2022-08-26T22:06:22.707Z,4.32
2022-08-26T22:08:52.135Z,3.92
2022-08-26T22:11:19.904Z,4.38
2022-08-26T22:13:48.712Z,3.70
2022-08-26T22:16:16.381Z,3.72
2022-08-26T22:18:45.970Z,4.43
2022-08-26T22:21:20.773Z,4.40
2022-08-26T22:23:48.226Z,4.25
2022-08-26T22:26:25.502Z,3.58
2022-08-26T22:28:58.646Z,4.32
2022-08-26T22:31:37.647Z,4.38
2022-08-26T22:34:08.972Z,4.00
2022-08-26T22:36:43.104Z,3.90
2022-08-26T22:39:17.244Z,3.92
2022-08-26T22:41:45.386Z,3.83
2022-08-26T22:44:12.850Z,3.53
2022-08-26T22:46:42.294Z,3.78
2022-08-26T22:49:11.404Z,3.50
2022-08-26T22:51:39.106Z,3.30
2022-08-26T22:54:06.587Z,3.85
2022-08-26T22:56:34.545Z,3.60
2022-08-26T22:59:02.250Z,3.88
2022-08-26T23:01:30.000Z,3.60
2022-08-26T23:03:57.518Z,3.90
2022-08-26T23:06:25.111Z,4.20
2022-08-26T23:08:53.245Z,3.80
2022-08-26T23:11:25.257Z,3.95
2022-08-26T23:13:52.708Z,3.50
2022-08-26T23:16:20.255Z,4.47
2022-08-26T23:18:47.755Z,3.90
2022-08-26T23:21:15.289Z,3.92
2022-08-26T23:23:42.763Z,3.83
2022-08-26T23:26:16.723Z,3.90
2022-08-26T23:28:45.033Z,3.42
2022-08-26T23:31:12.404Z,3.60
2022-08-26T23:33:59.064Z,3.50
2022-08-26T23:36:26.698Z,3.65
2022-08-26T23:38:54.408Z,3.70
2022-08-26T23:41:22.905Z,4.22
2022-08-26T23:43:51.804Z,3.60
2022-08-26T23:46:19.929Z,3.80
2022-08-26T23:48:47.323Z,3.67
2022-08-26T23:51:33.356Z,3.80
2022-08-26T23:54:00.940Z,4.43
2022-08-26T23:56:29.243Z,3.58
2022-08-26T23:58:56.878Z,3.78
